createdAt,value
2017-07-28T00:00:34.967Z,995.8
2017-07-28T00:01:34.990Z,995.76
2017-07-28T00:02:35.013Z,995.69
2017-07-28T00:03:35.037Z,995.68
2017-07-28T00:04:35.059Z,995.62
2017-07-28T00:05:35.081Z,995.64
2017-07-28T00:06:35.105Z,995.63
2017-07-28T00:07:35.126Z,995.6
2017-07-28T00:08:35.261Z,995.6
2017-07-28T00:09:35.176Z,995.67
2017-07-28T00:10:35.197Z,995.66
2017-07-28T00:11:35.223Z,995.71
2017-07-28T00:12:35.242Z,995.75
2017-07-28T00:13:35.265Z,995.76
2017-07-28T00:14:35.289Z,995.77
2017-07-28T00:15:35.312Z,995.79
2017-07-28T00:16:35.334Z,995.78
2017-07-28T00:17:35.359Z,995.78
2017-07-28T00:18:35.381Z,995.76
2017-07-28T00:19:35.406Z,995.73
2017-07-28T00:20:35.427Z,995.72
2017-07-28T00:21:35.449Z,995.68
2017-07-28T00:22:35.479Z,995.67
2017-07-28T00:23:35.495Z,995.69
2017-07-28T00:24:35.518Z,995.71
2017-07-28T00:25:35.543Z,995.72
2017-07-28T00:26:35.564Z,995.74
2017-07-28T00:27:35.586Z,995.72
2017-07-28T00:28:35.610Z,995.77
2017-07-28T00:29:35.634Z,995.76
2017-07-28T00:30:35.656Z,995.73
2017-07-28T00:31:35.677Z,995.77
2017-07-28T00:32:35.703Z,995.77
2017-07-28T00:33:35.725Z,995.8
2017-07-28T00:34:35.745Z,995.77
2017-07-28T00:35:35.771Z,995.76
2017-07-28T00:36:35.795Z,995.75
2017-07-28T00:37:35.815Z,995.76
2017-07-28T00:38:35.838Z,995.69
2017-07-28T00:39:35.862Z,995.68
2017-07-28T00:40:35.885Z,995.66
2017-07-28T00:41:35.906Z,995.64
2017-07-28T00:42:35.928Z,995.63
2017-07-28T00:43:35.953Z,995.65
2017-07-28T00:44:35.976Z,995.66
2017-07-28T00:45:35.994Z,995.72
2017-07-28T00:46:36.017Z,995.69
2017-07-28T00:47:36.041Z,995.72
2017-07-28T00:48:36.062Z,995.72
2017-07-28T00:49:36.086Z,995.68
2017-07-28T00:50:36.110Z,995.65
2017-07-28T00:51:36.143Z,995.64
2017-07-28T00:52:36.154Z,995.59
2017-07-28T00:53:36.179Z,995.58
2017-07-28T00:54:36.202Z,995.57
2017-07-28T00:55:36.225Z,995.59
2017-07-28T00:56:36.247Z,995.57
2017-07-28T00:57:36.267Z,995.59
2017-07-28T00:58:36.293Z,995.66
2017-07-28T00:59:36.315Z,995.64
2017-07-28T01:00:36.339Z,995.7
2017-07-28T01:01:36.359Z,995.72
2017-07-28T01:02:36.382Z,995.75
2017-07-28T01:03:36.404Z,995.72
2017-07-28T01:04:36.431Z,995.72
2017-07-28T01:05:36.450Z,995.68
2017-07-28T01:06:36.473Z,995.74
2017-07-28T01:07:36.497Z,995.69
2017-07-28T01:08:36.519Z,995.66
2017-07-28T01:09:36.542Z,995.69
2017-07-28T01:10:36.563Z,995.7
2017-07-28T01:11:36.586Z,995.7
2017-07-28T01:12:36.611Z,995.74
2017-07-28T01:13:36.633Z,995.76
2017-07-28T01:14:36.652Z,995.74
2017-07-28T01:15:36.764Z,995.78
2017-07-28T01:16:36.714Z,995.8
2017-07-28T01:17:36.722Z,995.78
2017-07-28T01:18:36.744Z,995.79
2017-07-28T01:19:36.767Z,995.79
2017-07-28T01:20:36.789Z,995.78
2017-07-28T01:21:36.812Z,995.77
2017-07-28T01:22:36.834Z,995.8
2017-07-28T01:23:36.857Z,995.81
2017-07-28T01:24:36.881Z,995.81
2017-07-28T01:25:36.904Z,995.81
2017-07-28T01:26:36.925Z,995.83
2017-07-28T01:27:36.948Z,995.8
2017-07-28T01:28:36.969Z,995.81
2017-07-28T01:29:36.994Z,995.85
2017-07-28T01:30:37.014Z,995.84
2017-07-28T01:31:37.039Z,995.86
2017-07-28T01:32:37.060Z,995.84
2017-07-28T01:33:37.084Z,995.83
2017-07-28T01:34:37.105Z,995.87
2017-07-28T01:35:37.134Z,995.87
2017-07-28T01:36:37.151Z,995.88
2017-07-28T01:37:37.173Z,995.91
2017-07-28T01:38:37.198Z,995.93
2017-07-28T01:39:37.216Z,995.93
2017-07-28T01:40:37.241Z,995.95
2017-07-28T01:41:37.265Z,995.98
2017-07-28T01:42:37.286Z,996.01
2017-07-28T01:43:37.308Z,996.05
2017-07-28T01:44:37.330Z,996.07
2017-07-28T01:45:37.379Z,996.13
2017-07-28T01:46:37.375Z,996.13
2017-07-28T01:47:37.398Z,996.16
2017-07-28T01:48:37.421Z,996.15
2017-07-28T01:49:37.447Z,996.19
2017-07-28T01:50:37.466Z,996.16
2017-07-28T01:51:37.490Z,996.17
2017-07-28T01:52:37.513Z,996.17
2017-07-28T01:53:37.534Z,996.21
2017-07-28T01:54:37.556Z,996.17
2017-07-28T01:55:37.580Z,996.18
2017-07-28T01:56:37.603Z,996.19
2017-07-28T01:57:37.624Z,996.25
2017-07-28T01:58:37.647Z,996.19
2017-07-28T01:59:37.669Z,996.16
2017-07-28T02:00:37.692Z,996.15
2017-07-28T02:01:37.717Z,996.14
2017-07-28T02:02:37.735Z,996.16
2017-07-28T02:03:37.760Z,996.18
2017-07-28T02:04:37.782Z,996.23
2017-07-28T02:05:37.805Z,996.26
2017-07-28T02:06:37.826Z,996.3
2017-07-28T02:07:37.849Z,996.31
2017-07-28T02:08:37.871Z,996.25
2017-07-28T02:09:37.901Z,996.25
2017-07-28T02:10:37.915Z,996.25
2017-07-28T02:11:37.940Z,996.25
2017-07-28T02:12:37.961Z,996.28
2017-07-28T02:13:37.984Z,996.27
2017-07-28T02:14:38.005Z,996.29
2017-07-28T02:15:38.030Z,996.27
2017-07-28T02:16:38.060Z,996.32
2017-07-28T02:17:38.074Z,996.32
2017-07-28T02:18:38.100Z,996.35
2017-07-28T02:19:38.118Z,996.38
2017-07-28T02:20:38.140Z,996.39
2017-07-28T02:21:38.164Z,996.44
2017-07-28T02:22:38.184Z,996.4
2017-07-28T02:23:38.206Z,996.43
2017-07-28T02:24:38.230Z,996.44
2017-07-28T02:25:38.252Z,996.44
2017-07-28T02:26:38.328Z,996.45
2017-07-28T02:27:38.298Z,996.48
2017-07-28T02:28:38.323Z,996.51
2017-07-28T02:29:38.341Z,996.49
2017-07-28T02:30:38.368Z,996.46
2017-07-28T02:31:38.385Z,996.5
2017-07-28T02:32:38.465Z,996.49
2017-07-28T02:33:38.432Z,996.49
2017-07-28T02:34:38.453Z,996.5
2017-07-28T02:35:38.476Z,996.51
2017-07-28T02:36:38.501Z,996.55
2017-07-28T02:37:38.522Z,996.54
2017-07-28T02:38:38.542Z,996.54
2017-07-28T02:39:38.566Z,996.55
2017-07-28T02:40:38.588Z,996.51
2017-07-28T02:41:38.609Z,996.54
2017-07-28T02:42:38.642Z,996.56
2017-07-28T02:43:38.653Z,996.5
2017-07-28T02:44:38.682Z,996.56
2017-07-28T02:45:38.698Z,996.52
2017-07-28T02:46:38.720Z,996.57
2017-07-28T02:47:38.744Z,996.56
2017-07-28T02:48:38.767Z,996.56
2017-07-28T02:49:38.787Z,996.56
2017-07-28T02:50:38.810Z,996.57
2017-07-28T02:51:38.833Z,996.55
2017-07-28T02:52:38.858Z,996.6
2017-07-28T02:53:38.876Z,996.61
2017-07-28T02:54:38.904Z,996.57
2017-07-28T02:55:38.922Z,996.58
2017-07-28T02:56:39.053Z,996.56
2017-07-28T02:57:39.004Z,996.56
2017-07-28T02:58:38.990Z,996.55
2017-07-28T02:59:39.012Z,996.52
2017-07-28T03:00:39.035Z,996.51
2017-07-28T03:01:39.055Z,996.46
2017-07-28T03:02:39.079Z,996.46
2017-07-28T03:03:39.168Z,996.46
2017-07-28T03:04:39.192Z,996.44
2017-07-28T03:05:39.205Z,996.43
2017-07-28T03:06:39.201Z,996.44
2017-07-28T03:07:39.200Z,996.43
2017-07-28T03:08:39.212Z,996.49
2017-07-28T03:09:39.235Z,996.52
2017-07-28T03:10:39.257Z,996.51
2017-07-28T03:11:39.279Z,996.53
2017-07-28T03:12:39.303Z,996.51
2017-07-28T03:13:39.322Z,996.49
2017-07-28T03:14:39.345Z,996.52
2017-07-28T03:15:39.367Z,996.48
2017-07-28T03:16:39.389Z,996.46
2017-07-28T03:17:39.413Z,996.45
2017-07-28T03:18:39.433Z,996.49
2017-07-28T03:19:39.458Z,996.48
2017-07-28T03:20:39.480Z,996.51
2017-07-28T03:21:39.501Z,996.51
2017-07-28T03:22:39.520Z,996.53
2017-07-28T03:23:39.545Z,996.49
2017-07-28T03:24:39.567Z,996.49
2017-07-28T03:25:39.588Z,996.5
2017-07-28T03:26:39.613Z,996.52
2017-07-28T03:27:39.637Z,996.51
2017-07-28T03:28:39.660Z,996.51
2017-07-28T03:29:39.680Z,996.55
2017-07-28T03:30:39.807Z,996.59
2017-07-28T03:31:39.723Z,996.6
2017-07-28T03:32:39.748Z,996.59
2017-07-28T03:33:39.767Z,996.58
2017-07-28T03:34:39.792Z,996.58
2017-07-28T03:35:39.813Z,996.56
2017-07-28T03:36:39.833Z,996.53
2017-07-28T03:37:39.857Z,996.56
2017-07-28T03:38:39.878Z,996.59
2017-07-28T03:39:39.901Z,996.59
2017-07-28T03:40:39.922Z,996.57
2017-07-28T03:41:39.946Z,996.59
2017-07-28T03:42:39.967Z,996.6
2017-07-28T03:43:39.991Z,996.63
2017-07-28T03:44:40.012Z,996.61
2017-07-28T03:45:40.033Z,996.6
2017-07-28T03:46:40.055Z,996.62
2017-07-28T03:47:40.078Z,996.61
2017-07-28T03:48:40.098Z,996.65
2017-07-28T03:49:40.124Z,996.63
2017-07-28T03:50:40.144Z,996.63
2017-07-28T03:51:40.166Z,996.62
2017-07-28T03:52:40.189Z,996.65
2017-07-28T03:53:40.330Z,996.64
2017-07-28T03:54:40.235Z,996.66
2017-07-28T03:55:40.254Z,996.68
2017-07-28T03:56:40.277Z,996.72
2017-07-28T03:57:40.298Z,996.72
2017-07-28T03:58:40.320Z,996.79
2017-07-28T03:59:40.345Z,996.83
2017-07-28T04:00:40.367Z,996.86
2017-07-28T04:01:40.388Z,996.91
2017-07-28T04:02:40.410Z,996.88
2017-07-28T04:03:40.435Z,996.9
2017-07-28T04:04:40.456Z,996.91
2017-07-28T04:05:40.477Z,996.89
2017-07-28T04:06:40.499Z,996.89
2017-07-28T04:07:40.520Z,996.92
2017-07-28T04:08:40.544Z,996.92
2017-07-28T04:09:40.567Z,996.93
2017-07-28T04:10:40.587Z,996.92
2017-07-28T04:11:40.609Z,996.98
2017-07-28T04:12:40.633Z,996.97
2017-07-28T04:13:40.653Z,997
2017-07-28T04:14:40.676Z,996.99
2017-07-28T04:15:40.698Z,997.01
2017-07-28T04:16:40.722Z,997.03
2017-07-28T04:17:40.741Z,997.02
2017-07-28T04:18:40.765Z,997.03
2017-07-28T04:19:40.786Z,997.01
2017-07-28T04:20:40.808Z,997
2017-07-28T04:21:40.831Z,997.01
2017-07-28T04:22:40.852Z,997.01
2017-07-28T04:23:40.874Z,997.04
2017-07-28T04:24:40.896Z,997.05
2017-07-28T04:25:40.918Z,997.06
2017-07-28T04:26:40.942Z,997.11
2017-07-28T04:27:40.965Z,997.13
2017-07-28T04:28:40.984Z,997.12
2017-07-28T04:29:41.008Z,997.16
2017-07-28T04:30:41.030Z,997.11
2017-07-28T04:31:41.052Z,997.15
2017-07-28T04:32:41.073Z,997.16
2017-07-28T04:33:41.097Z,997.19
2017-07-28T04:34:41.119Z,997.17
2017-07-28T04:35:41.142Z,997.18
2017-07-28T04:36:41.163Z,997.17
2017-07-28T04:37:41.182Z,997.2
2017-07-28T04:38:41.206Z,997.24
2017-07-28T04:39:41.227Z,997.22
2017-07-28T04:40:41.251Z,997.27
2017-07-28T04:41:41.273Z,997.29
2017-07-28T04:42:41.295Z,997.28
2017-07-28T04:43:41.318Z,997.27
2017-07-28T04:44:41.337Z,997.21
2017-07-28T04:45:41.362Z,997.26
2017-07-28T04:46:41.383Z,997.25
2017-07-28T04:47:41.404Z,997.28
2017-07-28T04:48:41.425Z,997.29
2017-07-28T04:49:41.450Z,997.28
2017-07-28T04:50:41.472Z,997.31
2017-07-28T04:51:41.497Z,997.32
2017-07-28T04:52:41.516Z,997.35
2017-07-28T04:53:41.542Z,997.33
2017-07-28T04:54:41.563Z,997.34
2017-07-28T04:55:41.588Z,997.34
2017-07-28T04:56:41.605Z,997.37
2017-07-28T04:57:41.626Z,997.36
2017-07-28T04:58:41.647Z,997.39
2017-07-28T04:59:41.669Z,997.36
2017-07-28T05:00:41.693Z,997.36
2017-07-28T05:01:41.715Z,997.35
2017-07-28T05:02:41.737Z,997.33
2017-07-28T05:03:41.760Z,997.36
2017-07-28T05:04:41.780Z,997.39
2017-07-28T05:05:41.804Z,997.41
2017-07-28T05:06:41.825Z,997.41
2017-07-28T05:07:41.850Z,997.45
2017-07-28T05:08:41.868Z,997.48
2017-07-28T05:09:41.891Z,997.46
2017-07-28T05:10:41.913Z,997.49
2017-07-28T05:11:41.934Z,997.5
2017-07-28T05:12:41.957Z,997.5
2017-07-28T05:13:41.978Z,997.53
2017-07-28T05:14:42.001Z,997.55
2017-07-28T05:15:42.022Z,997.55
2017-07-28T05:16:42.046Z,997.58
2017-07-28T05:17:42.068Z,997.58
2017-07-28T05:18:42.089Z,997.62
2017-07-28T05:19:42.113Z,997.65
2017-07-28T05:20:42.137Z,997.68
2017-07-28T05:21:42.155Z,997.71
2017-07-28T05:22:42.178Z,997.76
2017-07-28T05:23:42.200Z,997.78
2017-07-28T05:24:42.221Z,997.83
2017-07-28T05:25:42.250Z,997.84
2017-07-28T05:26:42.273Z,997.83
2017-07-28T05:27:42.288Z,997.89
2017-07-28T05:28:42.309Z,997.9
2017-07-28T05:29:42.332Z,997.93
2017-07-28T05:30:42.353Z,997.96
2017-07-28T05:31:42.379Z,997.97
2017-07-28T05:32:42.400Z,998.01
2017-07-28T05:33:42.419Z,998
2017-07-28T05:34:42.442Z,998.05
2017-07-28T05:35:42.464Z,998.09
2017-07-28T05:36:42.486Z,998.11
2017-07-28T05:37:42.512Z,998.08
2017-07-28T05:38:42.532Z,998.04
2017-07-28T05:39:42.553Z,998.07
2017-07-28T05:40:42.576Z,998.03
2017-07-28T05:41:42.598Z,998.04
2017-07-28T05:42:42.619Z,998.02
2017-07-28T05:43:42.640Z,998.03
2017-07-28T05:44:42.781Z,998.01
2017-07-28T05:45:42.686Z,998.05
2017-07-28T05:46:42.710Z,998.08
2017-07-28T05:47:42.731Z,998.1
2017-07-28T05:48:42.762Z,998.15
2017-07-28T05:49:42.774Z,998.13
2017-07-28T05:50:42.797Z,998.16
2017-07-28T05:51:42.822Z,998.16
2017-07-28T05:52:42.853Z,998.12
2017-07-28T05:53:42.862Z,998.17
2017-07-28T05:54:42.891Z,998.19
2017-07-28T05:55:42.906Z,998.18
2017-07-28T05:56:42.928Z,998.18
2017-07-28T05:57:42.950Z,998.24
2017-07-28T05:58:42.973Z,998.21
2017-07-28T05:59:42.998Z,998.21
2017-07-28T06:00:43.080Z,998.24
2017-07-28T06:01:43.050Z,998.19
2017-07-28T06:02:43.063Z,998.24
2017-07-28T06:03:43.167Z,998.25
2017-07-28T06:04:43.106Z,998.27
2017-07-28T06:05:43.128Z,998.28
2017-07-28T06:06:43.149Z,998.33
2017-07-28T06:07:43.179Z,998.34
2017-07-28T06:09:43.216Z,998.31
2017-07-28T06:10:43.270Z,998.29
2017-07-28T06:11:43.259Z,998.32
2017-07-28T06:12:43.284Z,998.31
2017-07-28T06:13:43.305Z,998.34
2017-07-28T06:14:43.326Z,998.32
2017-07-28T06:15:43.350Z,998.3
2017-07-28T06:16:43.370Z,998.28
2017-07-28T06:17:43.394Z,998.28
2017-07-28T06:18:43.415Z,998.28
2017-07-28T06:19:43.437Z,998.28
2017-07-28T06:20:43.460Z,998.31
2017-07-28T06:21:43.487Z,998.32
2017-07-28T06:22:43.503Z,998.34
2017-07-28T06:23:43.526Z,998.36
2017-07-28T06:24:43.549Z,998.38
2017-07-28T06:25:43.571Z,998.41
2017-07-28T06:26:43.592Z,998.46
2017-07-28T06:27:43.616Z,998.43
2017-07-28T06:28:43.637Z,998.42
2017-07-28T06:29:43.660Z,998.49
2017-07-28T06:30:43.681Z,998.44
2017-07-28T06:31:43.705Z,998.47
2017-07-28T06:32:43.724Z,998.47
2017-07-28T06:33:43.746Z,998.46
2017-07-28T06:34:43.770Z,998.48
2017-07-28T06:35:43.792Z,998.52
2017-07-28T06:36:43.815Z,998.54
2017-07-28T06:37:43.838Z,998.54
2017-07-28T06:38:43.861Z,998.57
2017-07-28T06:39:43.880Z,998.57
2017-07-28T06:40:43.904Z,998.53
2017-07-28T06:41:43.925Z,998.52
2017-07-28T06:42:43.947Z,998.54
2017-07-28T06:43:43.969Z,998.53
2017-07-28T06:44:43.992Z,998.55
2017-07-28T06:45:44.014Z,998.53
2017-07-28T06:46:44.035Z,998.53
2017-07-28T06:47:44.057Z,998.57
2017-07-28T06:48:44.081Z,998.6
2017-07-28T06:49:44.105Z,998.57
2017-07-28T06:50:44.125Z,998.62
2017-07-28T06:51:44.146Z,998.67
2017-07-28T06:52:44.173Z,998.69
2017-07-28T06:53:44.190Z,998.67
2017-07-28T06:54:44.213Z,998.71
2017-07-28T06:55:44.237Z,998.7
2017-07-28T06:56:44.260Z,998.76
2017-07-28T06:57:44.279Z,998.72
2017-07-28T06:58:44.302Z,998.72
2017-07-28T06:59:44.335Z,998.8
2017-07-28T07:00:44.349Z,998.78
2017-07-28T07:01:44.370Z,998.76
2017-07-28T07:02:44.392Z,998.78
2017-07-28T07:03:44.414Z,998.74
2017-07-28T07:04:44.511Z,998.73
2017-07-28T07:05:44.458Z,998.8
2017-07-28T07:06:44.479Z,998.8
2017-07-28T07:07:44.503Z,998.77
2017-07-28T07:08:44.615Z,998.76
2017-07-28T07:09:44.652Z,998.77
2017-07-28T07:10:44.571Z,998.78
2017-07-28T07:11:44.592Z,998.78
2017-07-28T07:12:44.615Z,998.8
2017-07-28T07:13:44.635Z,998.83
2017-07-28T07:14:44.658Z,998.85
2017-07-28T07:15:44.679Z,998.88
2017-07-28T07:16:44.704Z,998.9
2017-07-28T07:17:44.722Z,998.87
2017-07-28T07:18:44.748Z,998.87
2017-07-28T07:19:44.768Z,998.88
2017-07-28T07:20:44.791Z,998.88
2017-07-28T07:21:44.814Z,998.85
2017-07-28T07:22:44.834Z,998.87
2017-07-28T07:23:44.858Z,998.87
2017-07-28T07:24:44.880Z,998.85
2017-07-28T07:25:44.901Z,998.91
2017-07-28T07:26:44.927Z,998.87
2017-07-28T07:27:44.950Z,998.85
2017-07-28T07:28:44.969Z,998.85
2017-07-28T07:29:44.992Z,998.84
2017-07-28T07:30:45.013Z,998.86
2017-07-28T07:31:45.035Z,998.82
2017-07-28T07:32:45.058Z,998.84
2017-07-28T07:33:45.084Z,998.85
2017-07-28T07:34:45.103Z,998.89
2017-07-28T07:35:45.126Z,998.91
2017-07-28T07:36:45.159Z,998.88
2017-07-28T07:37:45.170Z,998.91
2017-07-28T07:38:45.191Z,998.9
2017-07-28T07:39:45.215Z,998.94
2017-07-28T07:40:45.242Z,998.92
2017-07-28T07:41:45.260Z,998.89
2017-07-28T07:42:45.286Z,998.85
2017-07-28T07:43:45.307Z,998.84
2017-07-28T07:44:45.332Z,998.83
2017-07-28T07:45:45.351Z,998.85
2017-07-28T07:46:45.372Z,998.87
2017-07-28T07:47:45.395Z,998.91
2017-07-28T07:48:45.528Z,998.9
2017-07-28T07:49:45.524Z,998.89
2017-07-28T07:50:45.567Z,998.9
2017-07-28T07:51:45.495Z,998.9
2017-07-28T07:52:45.570Z,998.86
2017-07-28T07:53:45.530Z,998.89
2017-07-28T07:54:45.678Z,998.93
2017-07-28T07:55:45.575Z,998.89
2017-07-28T07:56:45.597Z,998.94
2017-07-28T07:57:45.620Z,998.95
2017-07-28T07:58:45.672Z,998.91
2017-07-28T07:59:45.666Z,998.96
2017-07-28T08:00:45.688Z,998.92
2017-07-28T08:01:45.710Z,998.96
2017-07-28T08:02:45.769Z,998.91
2017-07-28T08:03:45.756Z,998.89
2017-07-28T08:04:45.778Z,998.88
2017-07-28T08:05:45.823Z,998.86
2017-07-28T08:06:45.823Z,998.87
2017-07-28T08:07:45.850Z,998.9
2017-07-28T08:08:45.869Z,998.89
2017-07-28T08:09:45.890Z,998.84
2017-07-28T08:10:45.914Z,998.9
2017-07-28T08:11:45.938Z,998.84
2017-07-28T08:12:45.960Z,998.84
2017-07-28T08:13:45.982Z,998.87
2017-07-28T08:14:46.006Z,998.88
2017-07-28T08:15:46.030Z,998.86
2017-07-28T08:16:46.054Z,998.88
2017-07-28T08:17:46.077Z,998.87
2017-07-28T08:18:46.098Z,998.84
2017-07-28T08:19:46.126Z,998.88
2017-07-28T08:20:46.146Z,998.89
2017-07-28T08:21:46.166Z,998.95
2017-07-28T08:22:46.190Z,998.92
2017-07-28T08:23:46.213Z,998.89
2017-07-28T08:24:46.236Z,998.88
2017-07-28T08:25:46.258Z,998.87
2017-07-28T08:26:46.284Z,998.87
2017-07-28T08:27:46.305Z,998.88
2017-07-28T08:28:46.331Z,998.93
2017-07-28T08:29:46.353Z,998.94
2017-07-28T08:30:46.375Z,998.96
2017-07-28T08:31:46.400Z,998.96
2017-07-28T08:32:46.422Z,998.99
2017-07-28T08:33:46.446Z,998.99
2017-07-28T08:34:46.467Z,998.95
2017-07-28T08:35:46.492Z,999
2017-07-28T08:36:46.515Z,999.03
2017-07-28T08:37:46.538Z,999.04
2017-07-28T08:38:46.563Z,999.1
2017-07-28T08:39:46.585Z,999.1
2017-07-28T08:40:46.607Z,999.08
2017-07-28T08:41:46.848Z,999.11
2017-07-28T08:42:46.657Z,999.15
2017-07-28T08:43:46.678Z,999.13
2017-07-28T08:45:46.732Z,999.17
2017-07-28T08:46:46.750Z,999.18
2017-07-28T08:47:46.976Z,999.2
2017-07-28T08:48:46.797Z,999.19
2017-07-28T08:49:46.820Z,999.17
2017-07-28T08:50:46.845Z,999.16
2017-07-28T08:51:46.872Z,999.16
2017-07-28T08:52:46.892Z,999.16
2017-07-28T08:53:46.917Z,999.12
2017-07-28T08:54:46.941Z,999.13
2017-07-28T08:55:46.965Z,999.08
2017-07-28T08:56:46.987Z,999.1
2017-07-28T08:57:47.013Z,999.17
2017-07-28T08:58:47.048Z,999.15
2017-07-28T08:59:47.060Z,999.17
2017-07-28T09:00:47.085Z,999.21
2017-07-28T09:01:47.328Z,999.22
2017-07-28T09:02:47.135Z,999.23
2017-07-28T09:03:47.376Z,999.22
2017-07-28T09:04:47.180Z,999.25
2017-07-28T09:05:47.205Z,999.21
2017-07-28T09:06:47.245Z,999.19
2017-07-28T09:07:47.256Z,999.22
2017-07-28T09:08:47.294Z,999.25
2017-07-28T09:09:47.313Z,999.18
2017-07-28T09:10:47.325Z,999.17
2017-07-28T09:11:47.565Z,999.24
2017-07-28T09:12:47.479Z,999.17
2017-07-28T09:13:47.397Z,999.18
2017-07-28T09:14:47.423Z,999.17
2017-07-28T09:15:47.449Z,999.17
2017-07-28T09:16:47.472Z,999.2
2017-07-28T09:17:47.707Z,999.16
2017-07-28T09:18:47.523Z,999.14
2017-07-28T09:19:47.558Z,999.1
2017-07-28T09:20:47.784Z,999.13
2017-07-28T09:21:47.595Z,999.1
2017-07-28T09:22:47.843Z,999.13
2017-07-28T09:23:47.645Z,999.13
2017-07-28T09:24:47.672Z,999.18
2017-07-28T09:25:47.695Z,999.14
2017-07-28T09:26:47.719Z,999.17
2017-07-28T09:27:48.006Z,999.15
2017-07-28T09:28:47.776Z,999.17
2017-07-28T09:29:47.805Z,999.12
2017-07-28T09:30:47.816Z,999.14
2017-07-28T09:31:47.932Z,999.12
2017-07-28T09:32:47.866Z,999.09
2017-07-28T09:33:47.895Z,999.04
2017-07-28T09:34:47.918Z,999.1
2017-07-28T09:35:47.947Z,999.07
2017-07-28T09:36:47.968Z,999.12
2017-07-28T09:37:47.995Z,999.14
2017-07-28T09:38:48.019Z,999.19
2017-07-28T09:39:48.256Z,999.22
2017-07-28T09:40:48.067Z,999.2
2017-07-28T09:41:48.093Z,999.18
2017-07-28T09:42:48.118Z,999.28
2017-07-28T09:43:48.144Z,999.29
2017-07-28T09:44:48.169Z,999.24
2017-07-28T09:45:48.193Z,999.24
2017-07-28T09:46:48.221Z,999.27
2017-07-28T09:47:48.244Z,999.2
2017-07-28T09:48:48.270Z,999.24
2017-07-28T09:49:48.506Z,999.28
2017-07-28T09:50:48.322Z,999.22
2017-07-28T09:51:48.347Z,999.21
2017-07-28T09:52:48.374Z,999.21
2017-07-28T09:53:48.398Z,999.18
2017-07-28T09:54:48.424Z,999.27
2017-07-28T09:55:48.449Z,999.27
2017-07-28T09:56:48.475Z,999.25
2017-07-28T09:57:48.517Z,999.21
2017-07-28T09:58:48.530Z,999.24
2017-07-28T09:59:48.551Z,999.29
2017-07-28T10:00:48.578Z,999.26
2017-07-28T10:01:48.602Z,999.28
2017-07-28T10:02:48.628Z,999.26
2017-07-28T10:03:48.658Z,999.25
2017-07-28T10:04:48.678Z,999.26
2017-07-28T10:05:48.705Z,999.27
2017-07-28T10:06:48.944Z,999.26
2017-07-28T10:07:48.763Z,999.27
2017-07-28T10:08:48.784Z,999.29
2017-07-28T10:09:48.846Z,999.33
2017-07-28T10:10:48.837Z,999.35
2017-07-28T10:11:48.863Z,999.37
2017-07-28T10:12:48.887Z,999.41
2017-07-28T10:13:48.914Z,999.43
2017-07-28T10:14:48.941Z,999.44
2017-07-28T10:15:48.969Z,999.43
2017-07-28T10:16:48.992Z,999.44
2017-07-28T10:17:49.019Z,999.45
2017-07-28T10:18:49.046Z,999.46
2017-07-28T10:19:49.072Z,999.41
2017-07-28T10:20:49.097Z,999.44
2017-07-28T10:21:49.359Z,999.41
2017-07-28T10:22:49.150Z,999.36
2017-07-28T10:23:49.317Z,999.36
2017-07-28T10:24:49.213Z,999.37
2017-07-28T10:25:49.238Z,999.38
2017-07-28T10:26:49.257Z,999.41
2017-07-28T10:27:49.501Z,999.43
2017-07-28T10:28:49.476Z,999.42
2017-07-28T10:29:49.366Z,999.42
2017-07-28T10:30:49.463Z,999.41
2017-07-28T10:31:49.388Z,999.38
2017-07-28T10:32:49.631Z,999.48
2017-07-28T10:33:49.537Z,999.43
2017-07-28T10:34:49.682Z,999.51
2017-07-28T10:35:49.502Z,999.41
2017-07-28T10:36:49.521Z,999.46
2017-07-28T10:37:49.546Z,999.45
2017-07-28T10:38:49.574Z,999.41
2017-07-28T10:39:49.663Z,999.41
2017-07-28T10:40:49.672Z,999.36
2017-07-28T10:41:49.665Z,999.38
2017-07-28T10:42:49.698Z,999.38
2017-07-28T10:43:49.715Z,999.4
2017-07-28T10:44:49.733Z,999.4
2017-07-28T10:45:49.771Z,999.35
2017-07-28T10:46:49.787Z,999.38
2017-07-28T10:47:49.825Z,999.36
2017-07-28T10:48:49.842Z,999.34
2017-07-28T10:49:49.868Z,999.41
2017-07-28T10:50:49.894Z,999.4
2017-07-28T10:51:49.927Z,999.39
2017-07-28T10:52:49.954Z,999.39
2017-07-28T10:53:49.974Z,999.34
2017-07-28T10:54:50.000Z,999.34
2017-07-28T10:55:50.080Z,999.35
2017-07-28T10:56:50.054Z,999.35
2017-07-28T10:57:50.095Z,999.32
2017-07-28T10:58:50.107Z,999.4
2017-07-28T10:59:50.133Z,999.41
2017-07-28T11:00:50.163Z,999.43
2017-07-28T11:01:50.306Z,999.47
2017-07-28T11:02:50.214Z,999.45
2017-07-28T11:03:50.241Z,999.39
2017-07-28T11:04:50.268Z,999.43
2017-07-28T11:05:50.512Z,999.4
2017-07-28T11:06:50.320Z,999.41
2017-07-28T11:07:50.436Z,999.42
2017-07-28T11:08:50.460Z,999.43
2017-07-28T11:09:50.460Z,999.41
2017-07-28T11:10:50.637Z,999.28
2017-07-28T11:11:50.454Z,999.46
2017-07-28T11:12:50.483Z,999.49
2017-07-28T11:13:50.509Z,999.45
2017-07-28T11:14:50.549Z,999.4
2017-07-28T11:15:50.563Z,999.41
2017-07-28T11:16:50.589Z,999.47
2017-07-28T11:17:50.615Z,999.4
2017-07-28T11:18:50.642Z,999.41
2017-07-28T11:19:50.883Z,999.51
2017-07-28T11:20:50.695Z,999.5
2017-07-28T11:21:50.724Z,999.53
2017-07-28T11:22:50.750Z,999.49
2017-07-28T11:23:50.794Z,999.51
2017-07-28T11:24:50.804Z,999.58
2017-07-28T11:25:51.044Z,999.51
2017-07-28T11:26:50.860Z,999.39
2017-07-28T11:27:50.888Z,999.58
2017-07-28T11:28:50.917Z,999.52
2017-07-28T11:29:50.940Z,999.52
2017-07-28T11:30:50.972Z,999.52
2017-07-28T11:31:50.996Z,999.55
2017-07-28T11:32:51.232Z,999.55
2017-07-28T11:33:51.056Z,999.5
2017-07-28T11:34:51.082Z,999.55
2017-07-28T11:35:51.107Z,999.6
2017-07-28T11:36:51.142Z,999.77
2017-07-28T11:37:51.165Z,999.75
2017-07-28T11:38:51.187Z,999.66
2017-07-28T11:39:51.219Z,999.71
2017-07-28T11:40:51.244Z,999.7
2017-07-28T11:41:51.270Z,999.75
2017-07-28T11:42:51.298Z,999.85
2017-07-28T11:43:51.326Z,999.79
2017-07-28T11:44:51.354Z,999.79
2017-07-28T11:45:51.383Z,999.76
2017-07-28T11:46:51.408Z,999.85
2017-07-28T11:47:51.437Z,999.87
2017-07-28T11:48:51.468Z,999.89
2017-07-28T11:49:51.499Z,999.78
2017-07-28T11:50:51.522Z,999.76
2017-07-28T11:51:51.549Z,999.82
2017-07-28T11:52:51.577Z,999.84
2017-07-28T11:53:51.613Z,999.86
2017-07-28T11:54:51.634Z,999.91
2017-07-28T11:55:51.662Z,999.89
2017-07-28T11:56:51.690Z,999.78
2017-07-28T11:57:51.716Z,999.87
2017-07-28T11:58:51.747Z,999.85
2017-07-28T11:59:51.773Z,999.86
2017-07-28T12:00:51.808Z,999.91
2017-07-28T12:01:51.832Z,999.91
2017-07-28T12:02:51.858Z,999.9
2017-07-28T12:03:51.888Z,999.87
2017-07-28T12:04:51.914Z,999.88
2017-07-28T12:05:51.948Z,999.99
2017-07-28T12:06:51.970Z,999.94
2017-07-28T12:07:52.000Z,999.93
2017-07-28T12:08:52.027Z,999.97
2017-07-28T12:09:52.057Z,999.96
2017-07-28T12:10:52.125Z,999.89
2017-07-28T12:11:52.114Z,999.92
2017-07-28T12:12:52.152Z,999.96
2017-07-28T12:13:52.171Z,999.92
2017-07-28T12:14:52.197Z,999.87
2017-07-28T12:15:52.226Z,999.93
2017-07-28T12:16:52.256Z,999.95
2017-07-28T12:17:52.536Z,999.94
2017-07-28T12:18:52.530Z,999.92
2017-07-28T12:19:52.340Z,999.92
2017-07-28T12:20:52.371Z,999.92
2017-07-28T12:21:52.399Z,999.9
2017-07-28T12:22:52.429Z,999.98
2017-07-28T12:23:52.453Z,1000.02
2017-07-28T12:24:52.483Z,999.97
2017-07-28T12:25:52.585Z,1000.07
2017-07-28T12:26:52.541Z,1000.12
2017-07-28T12:27:52.569Z,1000.05
2017-07-28T12:28:52.599Z,1000.02
2017-07-28T12:29:52.629Z,999.99
2017-07-28T12:30:52.656Z,999.98
2017-07-28T12:31:52.687Z,999.99
2017-07-28T12:32:52.716Z,1000.04